sensor_id;sensor_type;location;lat;lon;timestamp;P1;durP1;ratioP1;P2;durP2;ratioP2
19671;SDS011;9983;51.114;13.788;2023-07-16T00:01:21;4.72;;;3.15;;
19671;SDS011;9983;51.114;13.788;2023-07-16T00:06:21;3.40;;;3.17;;
19671;SDS011;9983;51.114;13.788;2023-07-16T00:11:21;4.63;;;3.00;;
19671;SDS011;9983;51.114;13.788;2023-07-16T00:16:22;3.50;;;3.20;;
19671;SDS011;9983;51.114;13.788;2023-07-16T00:21:22;3.63;;;3.33;;
19671;SDS011;9983;51.114;13.788;2023-07-16T00:26:23;4.43;;;3.40;;
19671;SDS011;9983;51.114;13.788;2023-07-16T00:31:24;5.80;;;3.30;;
19671;SDS011;9983;51.114;13.788;2023-07-16T00:36:24;3.25;;;2.92;;
19671;SDS011;9983;51.114;13.788;2023-07-16T00:41:24;3.53;;;2.85;;
19671;SDS011;9983;51.114;13.788;2023-07-16T00:46:25;3.75;;;3.03;;
19671;SDS011;9983;51.114;13.788;2023-07-16T00:51:25;3.10;;;2.80;;
19671;SDS011;9983;51.114;13.788;2023-07-16T00:56:26;2.67;;;2.47;;
19671;SDS011;9983;51.114;13.788;2023-07-16T01:01:27;3.30;;;2.80;;
19671;SDS011;9983;51.114;13.788;2023-07-16T01:11:35;2.55;;;2.45;;
19671;SDS011;9983;51.114;13.788;2023-07-16T01:16:37;2.70;;;2.50;;
19671;SDS011;9983;51.114;13.788;2023-07-16T01:21:45;3.40;;;2.33;;
19671;SDS011;9983;51.114;13.788;2023-07-16T01:32:21;2.08;;;1.90;;
19671;SDS011;9983;51.114;13.788;2023-07-16T01:37:23;3.35;;;2.08;;
19671;SDS011;9983;51.114;13.788;2023-07-16T01:42:23;1.80;;;1.70;;
19671;SDS011;9983;51.114;13.788;2023-07-16T01:47:25;2.65;;;1.83;;
19671;SDS011;9983;51.114;13.788;2023-07-16T01:52:39;1.70;;;1.60;;
19671;SDS011;9983;51.114;13.788;2023-07-16T01:57:39;1.42;;;1.40;;
19671;SDS011;9983;51.114;13.788;2023-07-16T02:02:39;1.92;;;1.40;;
19671;SDS011;9983;51.114;13.788;2023-07-16T02:07:40;1.58;;;1.23;;
19671;SDS011;9983;51.114;13.788;2023-07-16T02:12:40;2.35;;;1.10;;
19671;SDS011;9983;51.114;13.788;2023-07-16T02:17:40;1.20;;;1.10;;
19671;SDS011;9983;51.114;13.788;2023-07-16T02:22:41;4.15;;;1.30;;
19671;SDS011;9983;51.114;13.788;2023-07-16T02:27:41;1.88;;;1.00;;
19671;SDS011;9983;51.114;13.788;2023-07-16T02:32:41;1.27;;;1.17;;
19671;SDS011;9983;51.114;13.788;2023-07-16T02:37:42;1.25;;;1.15;;
19671;SDS011;9983;51.114;13.788;2023-07-16T02:42:42;1.33;;;1.23;;
19671;SDS011;9983;51.114;13.788;2023-07-16T02:47:42;2.15;;;1.50;;
19671;SDS011;9983;51.114;13.788;2023-07-16T02:52:42;3.47;;;1.77;;
19671;SDS011;9983;51.114;13.788;2023-07-16T02:57:43;1.70;;;1.60;;
19671;SDS011;9983;51.114;13.788;2023-07-16T03:02:43;2.47;;;1.77;;
19671;SDS011;9983;51.114;13.788;2023-07-16T03:07:43;3.45;;;2.10;;
19671;SDS011;9983;51.114;13.788;2023-07-16T03:12:43;3.17;;;2.87;;
19671;SDS011;9983;51.114;13.788;2023-07-16T03:17:44;3.75;;;2.15;;
19671;SDS011;9983;51.114;13.788;2023-07-16T03:22:44;3.55;;;1.98;;
19671;SDS011;9983;51.114;13.788;2023-07-16T03:27:44;3.38;;;2.03;;
19671;SDS011;9983;51.114;13.788;2023-07-16T03:32:44;3.95;;;2.50;;
19671;SDS011;9983;51.114;13.788;2023-07-16T03:37:45;3.78;;;2.13;;
19671;SDS011;9983;51.114;13.788;2023-07-16T03:42:45;4.53;;;2.60;;
19671;SDS011;9983;51.114;13.788;2023-07-16T03:47:45;2.53;;;2.03;;
19671;SDS011;9983;51.114;13.788;2023-07-16T03:52:46;4.60;;;2.35;;
19671;SDS011;9983;51.114;13.788;2023-07-16T03:57:47;3.00;;;2.10;;
19671;SDS011;9983;51.114;13.788;2023-07-16T04:02:47;5.20;;;2.60;;
19671;SDS011;9983;51.114;13.788;2023-07-16T04:07:47;3.03;;;2.28;;
19671;SDS011;9983;51.114;13.788;2023-07-16T04:12:47;3.58;;;2.40;;
19671;SDS011;9983;51.114;13.788;2023-07-16T04:17:48;2.20;;;2.08;;
19671;SDS011;9983;51.114;13.788;2023-07-16T04:22:48;4.18;;;2.78;;
19671;SDS011;9983;51.114;13.788;2023-07-16T04:27:48;2.83;;;2.25;;
19671;SDS011;9983;51.114;13.788;2023-07-16T04:32:48;5.38;;;2.50;;
19671;SDS011;9983;51.114;13.788;2023-07-16T04:37:49;2.40;;;2.20;;
19671;SDS011;9983;51.114;13.788;2023-07-16T04:42:49;5.32;;;2.55;;
19671;SDS011;9983;51.114;13.788;2023-07-16T04:47:49;2.53;;;2.20;;
19671;SDS011;9983;51.114;13.788;2023-07-16T04:52:50;3.43;;;2.57;;
19671;SDS011;9983;51.114;13.788;2023-07-16T04:57:50;2.55;;;2.35;;
19671;SDS011;9983;51.114;13.788;2023-07-16T05:02:53;2.50;;;2.30;;
19671;SDS011;9983;51.114;13.788;2023-07-16T05:07:53;2.75;;;2.22;;
19671;SDS011;9983;51.114;13.788;2023-07-16T05:12:54;2.95;;;2.28;;
19671;SDS011;9983;51.114;13.788;2023-07-16T05:17:54;3.75;;;2.80;;
19671;SDS011;9983;51.114;13.788;2023-07-16T05:22:54;3.50;;;2.10;;
19671;SDS011;9983;51.114;13.788;2023-07-16T05:27:55;2.27;;;2.10;;
19671;SDS011;9983;51.114;13.788;2023-07-16T05:32:55;2.05;;;1.90;;
19671;SDS011;9983;51.114;13.788;2023-07-16T05:37:55;2.13;;;1.90;;
19671;SDS011;9983;51.114;13.788;2023-07-16T05:42:56;1.90;;;1.80;;
19671;SDS011;9983;51.114;13.788;2023-07-16T05:47:56;2.75;;;1.70;;
19671;SDS011;9983;51.114;13.788;2023-07-16T05:52:56;2.03;;;1.83;;
19671;SDS011;9983;51.114;13.788;2023-07-16T05:57:56;4.45;;;2.10;;
19671;SDS011;9983;51.114;13.788;2023-07-16T06:02:57;2.45;;;2.17;;
19671;SDS011;9983;51.114;13.788;2023-07-16T06:07:57;2.40;;;2.20;;
19671;SDS011;9983;51.114;13.788;2023-07-16T06:12:57;2.25;;;1.90;;
19671;SDS011;9983;51.114;13.788;2023-07-16T06:17:58;2.05;;;1.83;;
19671;SDS011;9983;51.114;13.788;2023-07-16T06:22:58;2.00;;;1.90;;
19671;SDS011;9983;51.114;13.788;2023-07-16T06:27:58;2.38;;;2.17;;
19671;SDS011;9983;51.114;13.788;2023-07-16T06:32:59;2.38;;;2.10;;
19671;SDS011;9983;51.114;13.788;2023-07-16T06:37:59;2.05;;;1.95;;
19671;SDS011;9983;51.114;13.788;2023-07-16T06:42:59;2.10;;;2.00;;
19671;SDS011;9983;51.114;13.788;2023-07-16T06:48:00;2.13;;;1.92;;
19671;SDS011;9983;51.114;13.788;2023-07-16T06:53:00;1.90;;;1.80;;
19671;SDS011;9983;51.114;13.788;2023-07-16T06:58:01;1.90;;;1.80;;
19671;SDS011;9983;51.114;13.788;2023-07-16T07:03:01;2.70;;;1.92;;
19671;SDS011;9983;51.114;13.788;2023-07-16T07:08:01;1.85;;;1.63;;
19671;SDS011;9983;51.114;13.788;2023-07-16T07:13:02;1.88;;;1.77;;
19671;SDS011;9983;51.114;13.788;2023-07-16T07:18:02;1.92;;;1.80;;
19671;SDS011;9983;51.114;13.788;2023-07-16T07:23:02;1.43;;;1.33;;
19671;SDS011;9983;51.114;13.788;2023-07-16T07:28:05;1.77;;;1.67;;
19671;SDS011;9983;51.114;13.788;2023-07-16T07:33:05;1.58;;;1.48;;
19671;SDS011;9983;51.114;13.788;2023-07-16T07:38:05;1.92;;;1.63;;
19671;SDS011;9983;51.114;13.788;2023-07-16T07:43:05;2.13;;;1.60;;
19671;SDS011;9983;51.114;13.788;2023-07-16T07:48:06;2.05;;;1.73;;
19671;SDS011;9983;51.114;13.788;2023-07-16T07:53:06;1.90;;;1.80;;
19671;SDS011;9983;51.114;13.788;2023-07-16T07:58:07;1.83;;;1.67;;
19671;SDS011;9983;51.114;13.788;2023-07-16T08:03:07;2.00;;;1.90;;
19671;SDS011;9983;51.114;13.788;2023-07-16T08:08:07;2.67;;;1.77;;
19671;SDS011;9983;51.114;13.788;2023-07-16T08:13:08;2.00;;;1.90;;
19671;SDS011;9983;51.114;13.788;2023-07-16T08:18:08;2.42;;;1.70;;
19671;SDS011;9983;51.114;13.788;2023-07-16T08:23:08;2.05;;;1.90;;
19671;SDS011;9983;51.114;13.788;2023-07-16T08:28:09;2.88;;;1.83;;
19671;SDS011;9983;51.114;13.788;2023-07-16T08:33:10;1.67;;;1.58;;
19671;SDS011;9983;51.114;13.788;2023-07-16T08:38:12;2.10;;;1.83;;
19671;SDS011;9983;51.114;13.788;2023-07-16T08:43:12;2.15;;;1.80;;
19671;SDS011;9983;51.114;13.788;2023-07-16T08:48:16;2.22;;;1.75;;
19671;SDS011;9983;51.114;13.788;2023-07-16T08:53:18;1.70;;;1.60;;
19671;SDS011;9983;51.114;13.788;2023-07-16T08:58:18;2.35;;;1.75;;
19671;SDS011;9983;51.114;13.788;2023-07-16T09:03:22;3.63;;;1.77;;
19671;SDS011;9983;51.114;13.788;2023-07-16T09:08:22;1.80;;;1.70;;
19671;SDS011;9983;51.114;13.788;2023-07-16T09:13:28;1.75;;;1.65;;
19671;SDS011;9983;51.114;13.788;2023-07-16T09:18:29;4.85;;;2.05;;
19671;SDS011;9983;51.114;13.788;2023-07-16T09:23:30;2.67;;;2.00;;
19671;SDS011;9983;51.114;13.788;2023-07-16T09:28:31;2.53;;;1.95;;
19671;SDS011;9983;51.114;13.788;2023-07-16T09:33:32;1.85;;;1.55;;
19671;SDS011;9983;51.114;13.788;2023-07-16T09:38:32;1.80;;;1.60;;
19671;SDS011;9983;51.114;13.788;2023-07-16T09:43:34;1.90;;;1.80;;
19671;SDS011;9983;51.114;13.788;2023-07-16T09:48:35;3.35;;;1.70;;
19671;SDS011;9983;51.114;13.788;2023-07-16T09:53:35;2.22;;;2.08;;
19671;SDS011;9983;51.114;13.788;2023-07-16T09:58:36;3.05;;;2.03;;
19671;SDS011;9983;51.114;13.788;2023-07-16T10:03:47;1.70;;;1.60;;
19671;SDS011;9983;51.114;13.788;2023-07-16T10:08:50;2.72;;;1.50;;
19671;SDS011;9983;51.114;13.788;2023-07-16T10:13:50;2.05;;;1.50;;
19671;SDS011;9983;51.114;13.788;2023-07-16T10:18:51;2.90;;;1.98;;
19671;SDS011;9983;51.114;13.788;2023-07-16T10:23:58;1.95;;;1.60;;
19671;SDS011;9983;51.114;13.788;2023-07-16T10:28:59;2.00;;;1.80;;
19671;SDS011;9983;51.114;13.788;2023-07-16T10:39:07;2.88;;;1.90;;
19671;SDS011;9983;51.114;13.788;2023-07-16T10:44:08;3.30;;;1.65;;
19671;SDS011;9983;51.114;13.788;2023-07-16T10:49:09;2.55;;;1.60;;
19671;SDS011;9983;51.114;13.788;2023-07-16T10:54:10;1.77;;;1.67;;
19671;SDS011;9983;51.114;13.788;2023-07-16T10:59:10;3.72;;;2.10;;
19671;SDS011;9983;51.114;13.788;2023-07-16T11:04:11;2.35;;;1.80;;
19671;SDS011;9983;51.114;13.788;2023-07-16T11:09:11;3.25;;;1.95;;
19671;SDS011;9983;51.114;13.788;2023-07-16T11:14:11;2.05;;;1.95;;
19671;SDS011;9983;51.114;13.788;2023-07-16T11:19:12;1.93;;;1.70;;
19671;SDS011;9983;51.114;13.788;2023-07-16T11:24:12;2.03;;;1.83;;
19671;SDS011;9983;51.114;13.788;2023-07-16T11:29:14;2.00;;;1.80;;
19671;SDS011;9983;51.114;13.788;2023-07-16T11:34:15;2.03;;;1.90;;
19671;SDS011;9983;51.114;13.788;2023-07-16T11:39:15;2.20;;;2.03;;
19671;SDS011;9983;51.114;13.788;2023-07-16T11:44:18;2.65;;;2.10;;
19671;SDS011;9983;51.114;13.788;2023-07-16T11:49:19;2.63;;;2.10;;
19671;SDS011;9983;51.114;13.788;2023-07-16T11:54:19;2.25;;;2.08;;
19671;SDS011;9983;51.114;13.788;2023-07-16T11:59:19;2.50;;;2.25;;
19671;SDS011;9983;51.114;13.788;2023-07-16T12:04:20;3.40;;;2.00;;
19671;SDS011;9983;51.114;13.788;2023-07-16T12:09:20;2.30;;;2.10;;
19671;SDS011;9983;51.114;13.788;2023-07-16T12:14:20;4.03;;;2.20;;
19671;SDS011;9983;51.114;13.788;2023-07-16T12:19:21;2.13;;;2.03;;
19671;SDS011;9983;51.114;13.788;2023-07-16T12:24:21;2.33;;;2.17;;
19671;SDS011;9983;51.114;13.788;2023-07-16T12:29:21;2.15;;;2.05;;
19671;SDS011;9983;51.114;13.788;2023-07-16T12:34:22;2.17;;;2.00;;
19671;SDS011;9983;51.114;13.788;2023-07-16T12:39:22;3.23;;;2.30;;
19671;SDS011;9983;51.114;13.788;2023-07-16T12:44:22;2.37;;;2.17;;
19671;SDS011;9983;51.114;13.788;2023-07-16T12:49:22;2.42;;;2.22;;
19671;SDS011;9983;51.114;13.788;2023-07-16T12:54:23;2.40;;;2.20;;
19671;SDS011;9983;51.114;13.788;2023-07-16T12:59:23;2.17;;;1.97;;
19671;SDS011;9983;51.114;13.788;2023-07-16T13:04:24;2.75;;;2.05;;
19671;SDS011;9983;51.114;13.788;2023-07-16T13:09:24;2.33;;;2.22;;
19671;SDS011;9983;51.114;13.788;2023-07-16T13:14:25;3.25;;;2.47;;
19671;SDS011;9983;51.114;13.788;2023-07-16T13:19:26;3.38;;;2.10;;
19671;SDS011;9983;51.114;13.788;2023-07-16T13:24:26;2.60;;;2.15;;
19671;SDS011;9983;51.114;13.788;2023-07-16T13:29:26;2.50;;;2.27;;
19671;SDS011;9983;51.114;13.788;2023-07-16T13:34:27;2.13;;;2.00;;
19671;SDS011;9983;51.114;13.788;2023-07-16T13:39:27;2.28;;;2.10;;
19671;SDS011;9983;51.114;13.788;2023-07-16T13:44:27;3.28;;;2.25;;
19671;SDS011;9983;51.114;13.788;2023-07-16T13:49:28;6.18;;;2.30;;
19671;SDS011;9983;51.114;13.788;2023-07-16T13:54:28;2.20;;;2.00;;
19671;SDS011;9983;51.114;13.788;2023-07-16T13:59:28;2.40;;;2.20;;
19671;SDS011;9983;51.114;13.788;2023-07-16T14:04:28;2.20;;;1.95;;
19671;SDS011;9983;51.114;13.788;2023-07-16T14:09:29;4.30;;;2.33;;
19671;SDS011;9983;51.114;13.788;2023-07-16T14:14:30;3.13;;;2.40;;
19671;SDS011;9983;51.114;13.788;2023-07-16T14:19:30;2.60;;;2.13;;
19671;SDS011;9983;51.114;13.788;2023-07-16T14:24:30;2.80;;;2.35;;
19671;SDS011;9983;51.114;13.788;2023-07-16T14:29:31;2.50;;;2.30;;
19671;SDS011;9983;51.114;13.788;2023-07-16T14:34:31;2.78;;;2.30;;
19671;SDS011;9983;51.114;13.788;2023-07-16T14:39:31;2.45;;;2.10;;
19671;SDS011;9983;51.114;13.788;2023-07-16T14:44:32;2.65;;;2.22;;
19671;SDS011;9983;51.114;13.788;2023-07-16T14:49:33;2.47;;;2.28;;
19671;SDS011;9983;51.114;13.788;2023-07-16T14:54:33;3.30;;;2.17;;
19671;SDS011;9983;51.114;13.788;2023-07-16T14:59:35;2.90;;;2.30;;
19671;SDS011;9983;51.114;13.788;2023-07-16T15:04:36;4.10;;;2.10;;
19671;SDS011;9983;51.114;13.788;2023-07-16T15:09:37;2.13;;;1.92;;
19671;SDS011;9983;51.114;13.788;2023-07-16T15:14:38;2.75;;;2.15;;
19671;SDS011;9983;51.114;13.788;2023-07-16T15:19:38;3.83;;;2.20;;
19671;SDS011;9983;51.114;13.788;2023-07-16T15:24:39;3.45;;;2.03;;
19671;SDS011;9983;51.114;13.788;2023-07-16T15:29:39;2.22;;;2.03;;
19671;SDS011;9983;51.114;13.788;2023-07-16T15:34:39;2.55;;;2.00;;
19671;SDS011;9983;51.114;13.788;2023-07-16T15:39:41;2.63;;;2.15;;
19671;SDS011;9983;51.114;13.788;2023-07-16T15:44:42;2.38;;;2.17;;
19671;SDS011;9983;51.114;13.788;2023-07-16T15:49:42;2.90;;;2.22;;
19671;SDS011;9983;51.114;13.788;2023-07-16T15:54:42;2.38;;;2.13;;
19671;SDS011;9983;51.114;13.788;2023-07-16T15:59:42;3.17;;;2.25;;
19671;SDS011;9983;51.114;13.788;2023-07-16T16:04:43;3.92;;;2.40;;
19671;SDS011;9983;51.114;13.788;2023-07-16T16:09:44;2.50;;;2.30;;
19671;SDS011;9983;51.114;13.788;2023-07-16T16:14:44;2.17;;;1.90;;
19671;SDS011;9983;51.114;13.788;2023-07-16T16:19:45;3.28;;;2.28;;
19671;SDS011;9983;51.114;13.788;2023-07-16T16:24:45;2.10;;;1.90;;
19671;SDS011;9983;51.114;13.788;2023-07-16T16:29:45;2.60;;;2.40;;
19671;SDS011;9983;51.114;13.788;2023-07-16T16:34:45;2.55;;;2.05;;
19671;SDS011;9983;51.114;13.788;2023-07-16T16:39:46;3.47;;;2.20;;
19671;SDS011;9983;51.114;13.788;2023-07-16T16:44:48;3.15;;;2.67;;
19671;SDS011;9983;51.114;13.788;2023-07-16T16:49:48;2.63;;;2.42;;
19671;SDS011;9983;51.114;13.788;2023-07-16T16:54:48;4.55;;;3.17;;
19671;SDS011;9983;51.114;13.788;2023-07-16T16:59:48;4.22;;;3.30;;
19671;SDS011;9983;51.114;13.788;2023-07-16T17:04:49;3.07;;;2.33;;
19671;SDS011;9983;51.114;13.788;2023-07-16T17:09:49;3.08;;;2.53;;
19671;SDS011;9983;51.114;13.788;2023-07-16T17:14:49;3.45;;;3.15;;
19671;SDS011;9983;51.114;13.788;2023-07-16T17:19:52;4.13;;;2.60;;
19671;SDS011;9983;51.114;13.788;2023-07-16T17:24:54;2.47;;;2.28;;
19671;SDS011;9983;51.114;13.788;2023-07-16T17:29:54;2.33;;;1.95;;
19671;SDS011;9983;51.114;13.788;2023-07-16T17:34:56;4.95;;;2.85;;
19671;SDS011;9983;51.114;13.788;2023-07-16T17:39:56;4.68;;;2.78;;
19671;SDS011;9983;51.114;13.788;2023-07-16T17:44:56;3.33;;;2.45;;
19671;SDS011;9983;51.114;13.788;2023-07-16T17:49:57;3.43;;;2.60;;
19671;SDS011;9983;51.114;13.788;2023-07-16T17:54:57;4.65;;;2.50;;
19671;SDS011;9983;51.114;13.788;2023-07-16T17:59:57;4.55;;;2.70;;
19671;SDS011;9983;51.114;13.788;2023-07-16T18:04:57;4.28;;;2.30;;
19671;SDS011;9983;51.114;13.788;2023-07-16T18:09:58;2.63;;;2.42;;
19671;SDS011;9983;51.114;13.788;2023-07-16T18:14:58;3.60;;;2.45;;
19671;SDS011;9983;51.114;13.788;2023-07-16T18:19:59;3.35;;;2.60;;
19671;SDS011;9983;51.114;13.788;2023-07-16T18:24:59;4.75;;;2.50;;
19671;SDS011;9983;51.114;13.788;2023-07-16T18:30:00;3.67;;;2.50;;
19671;SDS011;9983;51.114;13.788;2023-07-16T18:35:03;2.50;;;2.30;;
19671;SDS011;9983;51.114;13.788;2023-07-16T18:40:04;2.38;;;2.17;;
19671;SDS011;9983;51.114;13.788;2023-07-16T18:45:06;3.45;;;2.20;;
19671;SDS011;9983;51.114;13.788;2023-07-16T18:50:07;3.15;;;2.33;;
19671;SDS011;9983;51.114;13.788;2023-07-16T18:55:10;2.72;;;2.10;;
19671;SDS011;9983;51.114;13.788;2023-07-16T19:00:10;2.33;;;2.13;;
19671;SDS011;9983;51.114;13.788;2023-07-16T19:05:12;3.10;;;2.20;;
19671;SDS011;9983;51.114;13.788;2023-07-16T19:10:14;3.25;;;2.42;;
19671;SDS011;9983;51.114;13.788;2023-07-16T19:15:14;2.78;;;2.20;;
19671;SDS011;9983;51.114;13.788;2023-07-16T19:20:15;4.93;;;2.47;;
19671;SDS011;9983;51.114;13.788;2023-07-16T19:25:15;3.33;;;2.50;;
19671;SDS011;9983;51.114;13.788;2023-07-16T19:30:15;2.90;;;2.20;;
19671;SDS011;9983;51.114;13.788;2023-07-16T19:35:16;3.15;;;2.85;;
19671;SDS011;9983;51.114;13.788;2023-07-16T19:40:16;4.00;;;2.63;;
19671;SDS011;9983;51.114;13.788;2023-07-16T19:45:16;2.60;;;2.30;;
19671;SDS011;9983;51.114;13.788;2023-07-16T19:50:17;3.20;;;2.53;;
19671;SDS011;9983;51.114;13.788;2023-07-16T19:55:17;3.40;;;2.30;;
19671;SDS011;9983;51.114;13.788;2023-07-16T20:00:17;4.47;;;2.50;;
19671;SDS011;9983;51.114;13.788;2023-07-16T20:05:18;3.78;;;2.72;;
19671;SDS011;9983;51.114;13.788;2023-07-16T20:10:18;7.30;;;2.77;;
19671;SDS011;9983;51.114;13.788;2023-07-16T20:15:19;2.88;;;2.50;;
19671;SDS011;9983;51.114;13.788;2023-07-16T20:20:19;3.95;;;2.58;;
19671;SDS011;9983;51.114;13.788;2023-07-16T20:25:19;5.65;;;2.83;;
19671;SDS011;9983;51.114;13.788;2023-07-16T20:30:20;3.13;;;2.57;;
19671;SDS011;9983;51.114;13.788;2023-07-16T20:35:20;5.03;;;2.60;;
19671;SDS011;9983;51.114;13.788;2023-07-16T20:40:20;3.40;;;2.90;;
19671;SDS011;9983;51.114;13.788;2023-07-16T20:45:21;4.05;;;2.85;;
19671;SDS011;9983;51.114;13.788;2023-07-16T20:50:24;3.00;;;2.67;;
19671;SDS011;9983;51.114;13.788;2023-07-16T20:55:25;4.22;;;3.08;;
19671;SDS011;9983;51.114;13.788;2023-07-16T21:00:27;5.93;;;2.95;;
19671;SDS011;9983;51.114;13.788;2023-07-16T21:05:31;4.47;;;2.80;;
19671;SDS011;9983;51.114;13.788;2023-07-16T21:10:33;2.58;;;2.38;;
19671;SDS011;9983;51.114;13.788;2023-07-16T21:15:33;2.95;;;2.70;;
19671;SDS011;9983;51.114;13.788;2023-07-16T21:20:35;6.43;;;2.88;;
19671;SDS011;9983;51.114;13.788;2023-07-16T21:25:39;3.20;;;2.90;;
19671;SDS011;9983;51.114;13.788;2023-07-16T21:30:41;2.75;;;2.55;;
19671;SDS011;9983;51.114;13.788;2023-07-16T21:35:41;3.78;;;2.70;;
19671;SDS011;9983;51.114;13.788;2023-07-16T21:40:42;4.07;;;2.95;;
19671;SDS011;9983;51.114;13.788;2023-07-16T21:45:42;4.93;;;3.80;;
19671;SDS011;9983;51.114;13.788;2023-07-16T21:50:42;3.92;;;3.03;;
19671;SDS011;9983;51.114;13.788;2023-07-16T21:55:43;2.92;;;2.72;;
19671;SDS011;9983;51.114;13.788;2023-07-16T22:00:43;3.75;;;3.17;;
19671;SDS011;9983;51.114;13.788;2023-07-16T22:05:43;4.70;;;3.10;;
19671;SDS011;9983;51.114;13.788;2023-07-16T22:10:44;4.05;;;2.40;;
19671;SDS011;9983;51.114;13.788;2023-07-16T22:15:44;3.45;;;3.15;;
19671;SDS011;9983;51.114;13.788;2023-07-16T22:20:44;3.63;;;3.25;;
19671;SDS011;9983;51.114;13.788;2023-07-16T22:25:44;3.38;;;3.08;;
19671;SDS011;9983;51.114;13.788;2023-07-16T22:30:45;3.28;;;2.97;;
19671;SDS011;9983;51.114;13.788;2023-07-16T22:35:46;3.28;;;2.97;;
19671;SDS011;9983;51.114;13.788;2023-07-16T22:40:46;3.58;;;3.28;;
19671;SDS011;9983;51.114;13.788;2023-07-16T22:45:46;3.20;;;2.90;;
19671;SDS011;9983;51.114;13.788;2023-07-16T22:50:46;3.95;;;3.55;;
19671;SDS011;9983;51.114;13.788;2023-07-16T22:55:47;5.28;;;3.30;;
19671;SDS011;9983;51.114;13.788;2023-07-16T23:00:48;3.78;;;3.22;;
19671;SDS011;9983;51.114;13.788;2023-07-16T23:05:48;3.50;;;3.20;;
19671;SDS011;9983;51.114;13.788;2023-07-16T23:10:48;4.40;;;3.15;;
19671;SDS011;9983;51.114;13.788;2023-07-16T23:15:49;3.45;;;3.15;;
19671;SDS011;9983;51.114;13.788;2023-07-16T23:20:49;5.45;;;3.20;;
19671;SDS011;9983;51.114;13.788;2023-07-16T23:25:50;3.88;;;3.10;;
19671;SDS011;9983;51.114;13.788;2023-07-16T23:30:50;5.23;;;3.17;;
19671;SDS011;9983;51.114;13.788;2023-07-16T23:35:51;4.18;;;3.17;;
19671;SDS011;9983;51.114;13.788;2023-07-16T23:40:51;5.05;;;3.30;;
19671;SDS011;9983;51.114;13.788;2023-07-16T23:45:51;3.97;;;3.15;;
19671;SDS011;9983;51.114;13.788;2023-07-16T23:50:52;3.55;;;3.00;;
19671;SDS011;9983;51.114;13.788;2023-07-16T23:55:52;3.63;;;3.30;;
